Thursday, January 18, 2018, 6:55 PM EST
Back to Local

KMGJ, Montgomery Orange Co Airport

Location: Montgomery, NY, United States Lat: 41.517
Local Time: 6:55 PM EST (23:55 GMT) Lon: -74.267
Time Zone: US/Eastern Elev: 354 ft

Show me the last for .
Show Coded

Time T Td Feel RH Dir Speed Gust Alt SLP Vis Weather Sky Remarks
2018-01-18 17:54 21 11 - 64 - Calm - 29.96 29.98 10 CLR None
2018-01-18 16:54 21 11 13 64 40° 6 - 29.94 29.96 10 CLR None
2018-01-18 15:54 26 12 21 54 40° 5 - 29.92 29.94 10 CLR None
2018-01-18 14:54 26 13 17 56 30° 9 - 29.91 29.93 10 CLR None
2018-01-18 13:54 26 12 18 54 50° 7 - 29.92 29.93 10 CLR None
2018-01-18 12:54 26 12 22 54 40° 3 - 29.93 29.95 10 CLR 6-hr Min Temp (1pm): -2.0°F
6-hr Max Temp (1pm): 26.1°F
2018-01-18 11:54 24 11 18 56 20° 5 - 29.98 30.00 10 CLR None
2018-01-18 10:54 21 8 16 56 90° 3 - 30.03 30.04 10 CLR None
2018-01-18 09:54 14 6 - 70 - Calm - 30.03 30.05 10 CLR None
2018-01-18 08:54 4 2 - 91 - Calm - 30.03 30.06 8 CLR None
2018-01-18 07:54 -1 -5 - 82 - Calm - 30.05 30.07 8 CLR None
2018-01-18 06:54 0 -3 - 87 - Calm - 30.02 30.05 6 BR CLR 24-hr Precip Total (7am): 0.18"
6-hr Min Temp (7am): -0.9°F
6-hr Max Temp (7am): 16.0°F
2018-01-18 05:54 1 -2 - 86 - Calm - 30.01 30.03 9 CLR None
2018-01-18 04:54 7 3 -2 83 260° 5 - 30.02 30.04 10 CLR None
2018-01-18 03:54 6 3 - 86 - Calm - 30.06 30.08 10 CLR None
2018-01-18 02:54 9 4 -2 79 210° 7 - 30.09 30.11 10 CLR None
2018-01-18 01:54 16 6 5 64 270° 8 - 30.09 30.11 10 CLR None
2018-01-18 00:54 12 5 4 72 200° 5 - 30.10 30.12 10 CLR 6-hr Min Temp (1am): 10.9°F
6-hr Max Temp (1am): 21.9°F
2018-01-17 23:54 16 6 10 64 300° 3 - 30.12 30.14 10 CLR 24-hr Min Temp (12am): 16.0°F
24-hr Max Temp (12am): 32.0°F
2018-01-17 22:54 17 6 7 61 310° 8 - 30.14 30.16 10 CLR None
2018-01-17 21:54 18 7 5 61 310° 13 - 30.16 30.17 10 CLR None
2018-01-17 21:27 19 8 8 61 320° 9 - 30.15 - 10 SCT026 None
2018-01-17 20:54 19 8 6 61 300° 14 - 30.16 30.17 10 OVC025 None
2018-01-17 19:54 21 11 5 64 310° 14 21 30.16 30.17 10 OVC021 None

Support USWX by starting your Amazon purchase here.